sensor_id;sensor_type;location;lat;lon;timestamp;temperature;humidity
7046;DHT22;3564;53.326;10.356;2023-06-22T00:02:16;23.10;98.00
7046;DHT22;3564;53.326;10.356;2023-06-22T00:04:45;23.00;98.10
7046;DHT22;3564;53.326;10.356;2023-06-22T00:07:10;23.00;98.30
7046;DHT22;3564;53.326;10.356;2023-06-22T00:09:36;23.00;98.50
7046;DHT22;3564;53.326;10.356;2023-06-22T00:12:02;22.90;98.50
7046;DHT22;3564;53.326;10.356;2023-06-22T00:14:28;22.90;98.70
7046;DHT22;3564;53.326;10.356;2023-06-22T00:16:53;22.80;98.70
7046;DHT22;3564;53.326;10.356;2023-06-22T00:19:24;22.90;98.90
7046;DHT22;3564;53.326;10.356;2023-06-22T00:21:55;22.90;98.90
7046;DHT22;3564;53.326;10.356;2023-06-22T00:24:25;22.80;98.90
7046;DHT22;3564;53.326;10.356;2023-06-22T00:26:51;22.80;98.90
7046;DHT22;3564;53.326;10.356;2023-06-22T00:29:16;22.80;98.80
7046;DHT22;3564;53.326;10.356;2023-06-22T00:31:43;22.80;98.90
7046;DHT22;3564;53.326;10.356;2023-06-22T00:34:12;22.70;98.80
7046;DHT22;3564;53.326;10.356;2023-06-22T00:36:41;22.70;98.80
7046;DHT22;3564;53.326;10.356;2023-06-22T00:39:06;22.60;98.80
7046;DHT22;3564;53.326;10.356;2023-06-22T00:41:36;22.60;99.00
7046;DHT22;3564;53.326;10.356;2023-06-22T00:44:01;22.50;98.90
7046;DHT22;3564;53.326;10.356;2023-06-22T00:46:27;22.60;98.90
7046;DHT22;3564;53.326;10.356;2023-06-22T00:48:55;22.50;99.00
7046;DHT22;3564;53.326;10.356;2023-06-22T00:51:22;22.40;98.90
7046;DHT22;3564;53.326;10.356;2023-06-22T00:53:50;22.40;99.10
7046;DHT22;3564;53.326;10.356;2023-06-22T00:56:17;22.30;99.10
7046;DHT22;3564;53.326;10.356;2023-06-22T00:58:45;22.40;99.20
7046;DHT22;3564;53.326;10.356;2023-06-22T01:01:12;22.30;99.10
7046;DHT22;3564;53.326;10.356;2023-06-22T01:03:39;22.30;99.20
7046;DHT22;3564;53.326;10.356;2023-06-22T01:06:12;22.30;99.30
7046;DHT22;3564;53.326;10.356;2023-06-22T01:08:49;22.30;99.40
7046;DHT22;3564;53.326;10.356;2023-06-22T01:11:31;22.30;99.30
7046;DHT22;3564;53.326;10.356;2023-06-22T01:14:06;22.20;99.40
7046;DHT22;3564;53.326;10.356;2023-06-22T01:16:34;22.20;99.40
7046;DHT22;3564;53.326;10.356;2023-06-22T01:21:53;22.10;99.40
7046;DHT22;3564;53.326;10.356;2023-06-22T01:24:41;22.10;99.40
7046;DHT22;3564;53.326;10.356;2023-06-22T01:27:28;22.10;99.50
7046;DHT22;3564;53.326;10.356;2023-06-22T01:29:58;22.10;99.50
7046;DHT22;3564;53.326;10.356;2023-06-22T01:32:31;22.00;99.60
7046;DHT22;3564;53.326;10.356;2023-06-22T01:34:59;22.00;99.70
7046;DHT22;3564;53.326;10.356;2023-06-22T01:37:25;22.00;99.60
7046;DHT22;3564;53.326;10.356;2023-06-22T01:39:55;22.00;99.70
7046;DHT22;3564;53.326;10.356;2023-06-22T01:42:24;22.00;99.70
7046;DHT22;3564;53.326;10.356;2023-06-22T01:44:52;22.00;99.70
7046;DHT22;3564;53.326;10.356;2023-06-22T01:47:18;22.00;99.80
7046;DHT22;3564;53.326;10.356;2023-06-22T01:49:44;22.00;99.80
7046;DHT22;3564;53.326;10.356;2023-06-22T01:52:14;21.90;99.80
7046;DHT22;3564;53.326;10.356;2023-06-22T01:54:43;21.90;99.80
7046;DHT22;3564;53.326;10.356;2023-06-22T01:57:09;21.80;99.80
7046;DHT22;3564;53.326;10.356;2023-06-22T01:59:40;21.80;99.80
7046;DHT22;3564;53.326;10.356;2023-06-22T02:02:10;21.80;99.90
7046;DHT22;3564;53.326;10.356;2023-06-22T02:07:14;21.80;99.90
7046;DHT22;3564;53.326;10.356;2023-06-22T02:09:44;21.80;99.80
7046;DHT22;3564;53.326;10.356;2023-06-22T02:12:11;21.70;99.80
7046;DHT22;3564;53.326;10.356;2023-06-22T02:14:45;21.70;99.80
7046;DHT22;3564;53.326;10.356;2023-06-22T02:17:18;21.70;99.70
7046;DHT22;3564;53.326;10.356;2023-06-22T02:19:44;21.70;99.80
7046;DHT22;3564;53.326;10.356;2023-06-22T02:22:09;21.60;99.80
7046;DHT22;3564;53.326;10.356;2023-06-22T02:24:35;21.50;99.80
7046;DHT22;3564;53.326;10.356;2023-06-22T02:27:01;21.50;99.70
7046;DHT22;3564;53.326;10.356;2023-06-22T02:29:28;21.50;99.90
7046;DHT22;3564;53.326;10.356;2023-06-22T02:31:54;21.40;99.90
7046;DHT22;3564;53.326;10.356;2023-06-22T02:34:20;21.40;99.90
7046;DHT22;3564;53.326;10.356;2023-06-22T02:36:49;21.50;99.90
7046;DHT22;3564;53.326;10.356;2023-06-22T02:39:22;21.40;99.90
7046;DHT22;3564;53.326;10.356;2023-06-22T02:41:52;21.40;99.90
7046;DHT22;3564;53.326;10.356;2023-06-22T02:44:23;21.40;99.90
7046;DHT22;3564;53.326;10.356;2023-06-22T02:46:49;21.40;99.90
7046;DHT22;3564;53.326;10.356;2023-06-22T02:49:18;21.40;99.90
7046;DHT22;3564;53.326;10.356;2023-06-22T02:51:47;21.30;99.90
7046;DHT22;3564;53.326;10.356;2023-06-22T02:54:13;21.30;99.90
7046;DHT22;3564;53.326;10.356;2023-06-22T02:56:38;21.30;99.90
7046;DHT22;3564;53.326;10.356;2023-06-22T02:59:09;21.30;99.90
7046;DHT22;3564;53.326;10.356;2023-06-22T03:01:36;21.30;99.90
7046;DHT22;3564;53.326;10.356;2023-06-22T03:04:06;21.30;99.90
7046;DHT22;3564;53.326;10.356;2023-06-22T03:06:32;21.30;99.90
7046;DHT22;3564;53.326;10.356;2023-06-22T03:09:02;21.20;99.90
7046;DHT22;3564;53.326;10.356;2023-06-22T03:11:35;21.20;99.90
7046;DHT22;3564;53.326;10.356;2023-06-22T03:14:01;21.20;99.90
7046;DHT22;3564;53.326;10.356;2023-06-22T03:16:27;21.20;99.90
7046;DHT22;3564;53.326;10.356;2023-06-22T03:18:53;21.20;99.90
7046;DHT22;3564;53.326;10.356;2023-06-22T03:21:19;21.20;99.90
7046;DHT22;3564;53.326;10.356;2023-06-22T03:23:48;21.10;99.90
7046;DHT22;3564;53.326;10.356;2023-06-22T03:26:17;21.10;99.90
7046;DHT22;3564;53.326;10.356;2023-06-22T03:28:43;21.10;99.90
7046;DHT22;3564;53.326;10.356;2023-06-22T03:31:11;21.10;99.90
7046;DHT22;3564;53.326;10.356;2023-06-22T03:33:37;21.10;99.90
7046;DHT22;3564;53.326;10.356;2023-06-22T03:36:06;21.10;99.90
7046;DHT22;3564;53.326;10.356;2023-06-22T03:38:32;21.10;99.90
7046;DHT22;3564;53.326;10.356;2023-06-22T03:41:00;21.10;99.90
7046;DHT22;3564;53.326;10.356;2023-06-22T03:43:29;21.10;99.90
7046;DHT22;3564;53.326;10.356;2023-06-22T03:46:00;21.10;99.90
7046;DHT22;3564;53.326;10.356;2023-06-22T03:48:26;21.10;99.90
7046;DHT22;3564;53.326;10.356;2023-06-22T03:50:52;21.10;99.90
7046;DHT22;3564;53.326;10.356;2023-06-22T03:53:17;21.10;99.90
7046;DHT22;3564;53.326;10.356;2023-06-22T03:55:51;21.20;99.90
7046;DHT22;3564;53.326;10.356;2023-06-22T03:58:19;21.20;99.90
7046;DHT22;3564;53.326;10.356;2023-06-22T04:00:46;21.20;99.90
7046;DHT22;3564;53.326;10.356;2023-06-22T04:03:17;21.20;99.90
7046;DHT22;3564;53.326;10.356;2023-06-22T04:05:46;21.20;99.90
7046;DHT22;3564;53.326;10.356;2023-06-22T04:08:13;21.30;99.90
7046;DHT22;3564;53.326;10.356;2023-06-22T04:10:39;21.30;99.90
7046;DHT22;3564;53.326;10.356;2023-06-22T04:13:04;21.30;99.90
7046;DHT22;3564;53.326;10.356;2023-06-22T04:15:30;21.40;99.90
7046;DHT22;3564;53.326;10.356;2023-06-22T04:17:55;21.40;99.90
7046;DHT22;3564;53.326;10.356;2023-06-22T04:20:27;21.40;99.90
7046;DHT22;3564;53.326;10.356;2023-06-22T04:22:56;21.40;99.90
7046;DHT22;3564;53.326;10.356;2023-06-22T04:25:22;21.40;99.90
7046;DHT22;3564;53.326;10.356;2023-06-22T04:27:48;21.50;99.90
7046;DHT22;3564;53.326;10.356;2023-06-22T04:30:16;21.50;99.90
7046;DHT22;3564;53.326;10.356;2023-06-22T04:32:43;21.50;99.90
7046;DHT22;3564;53.326;10.356;2023-06-22T04:35:09;21.60;99.90
7046;DHT22;3564;53.326;10.356;2023-06-22T04:37:35;21.60;99.90
7046;DHT22;3564;53.326;10.356;2023-06-22T04:40:01;21.60;99.90
7046;DHT22;3564;53.326;10.356;2023-06-22T04:42:29;21.60;99.90
7046;DHT22;3564;53.326;10.356;2023-06-22T04:45:04;21.70;99.90
7046;DHT22;3564;53.326;10.356;2023-06-22T04:47:30;21.70;99.90
7046;DHT22;3564;53.326;10.356;2023-06-22T04:50:05;21.80;99.90
7046;DHT22;3564;53.326;10.356;2023-06-22T04:52:31;21.80;99.90
7046;DHT22;3564;53.326;10.356;2023-06-22T04:54:56;21.80;99.90
7046;DHT22;3564;53.326;10.356;2023-06-22T04:57:23;21.90;99.90
7046;DHT22;3564;53.326;10.356;2023-06-22T04:59:59;21.90;99.90
7046;DHT22;3564;53.326;10.356;2023-06-22T05:02:39;21.90;99.90
7046;DHT22;3564;53.326;10.356;2023-06-22T05:05:05;22.00;99.90
7046;DHT22;3564;53.326;10.356;2023-06-22T05:07:33;22.00;99.90
7046;DHT22;3564;53.326;10.356;2023-06-22T05:09:59;22.00;99.90
7046;DHT22;3564;53.326;10.356;2023-06-22T05:12:25;22.10;99.90
7046;DHT22;3564;53.326;10.356;2023-06-22T05:14:53;22.20;99.90
7046;DHT22;3564;53.326;10.356;2023-06-22T05:17:19;22.20;99.90
7046;DHT22;3564;53.326;10.356;2023-06-22T05:19:45;22.30;99.90
7046;DHT22;3564;53.326;10.356;2023-06-22T05:22:16;22.30;99.90
7046;DHT22;3564;53.326;10.356;2023-06-22T05:24:45;22.30;99.90
7046;DHT22;3564;53.326;10.356;2023-06-22T05:27:11;22.40;99.90
7046;DHT22;3564;53.326;10.356;2023-06-22T05:29:37;22.50;99.90
7046;DHT22;3564;53.326;10.356;2023-06-22T05:32:03;22.50;99.90
7046;DHT22;3564;53.326;10.356;2023-06-22T05:34:29;22.60;99.90
7046;DHT22;3564;53.326;10.356;2023-06-22T05:36:54;22.60;99.90
7046;DHT22;3564;53.326;10.356;2023-06-22T05:39:22;22.60;99.90
7046;DHT22;3564;53.326;10.356;2023-06-22T05:41:48;22.60;99.90
7046;DHT22;3564;53.326;10.356;2023-06-22T05:44:17;22.70;99.90
7046;DHT22;3564;53.326;10.356;2023-06-22T05:46:44;22.80;99.90
7046;DHT22;3564;53.326;10.356;2023-06-22T05:49:11;22.80;99.90
7046;DHT22;3564;53.326;10.356;2023-06-22T05:51:37;22.90;99.90
7046;DHT22;3564;53.326;10.356;2023-06-22T05:54:02;22.90;99.90
7046;DHT22;3564;53.326;10.356;2023-06-22T05:56:28;23.00;99.90
7046;DHT22;3564;53.326;10.356;2023-06-22T05:58:53;23.10;99.90
7046;DHT22;3564;53.326;10.356;2023-06-22T06:01:19;23.10;99.90
7046;DHT22;3564;53.326;10.356;2023-06-22T06:03:45;23.20;99.90
7046;DHT22;3564;53.326;10.356;2023-06-22T06:06:14;23.30;99.90
7046;DHT22;3564;53.326;10.356;2023-06-22T06:08:42;23.40;99.90
7046;DHT22;3564;53.326;10.356;2023-06-22T06:11:08;23.50;99.80
7046;DHT22;3564;53.326;10.356;2023-06-22T06:13:33;23.50;99.60
7046;DHT22;3564;53.326;10.356;2023-06-22T06:15:59;23.60;99.60
7046;DHT22;3564;53.326;10.356;2023-06-22T06:18:24;23.70;99.60
7046;DHT22;3564;53.326;10.356;2023-06-22T06:20:50;23.70;99.70
7046;DHT22;3564;53.326;10.356;2023-06-22T06:23:16;23.80;99.80
7046;DHT22;3564;53.326;10.356;2023-06-22T06:25:41;23.80;99.60
7046;DHT22;3564;53.326;10.356;2023-06-22T06:28:07;23.90;99.50
7046;DHT22;3564;53.326;10.356;2023-06-22T06:30:33;23.90;99.40
7046;DHT22;3564;53.326;10.356;2023-06-22T06:33:01;24.00;99.30
7046;DHT22;3564;53.326;10.356;2023-06-22T06:35:27;24.00;99.30
7046;DHT22;3564;53.326;10.356;2023-06-22T06:37:52;24.00;99.20
7046;DHT22;3564;53.326;10.356;2023-06-22T06:40:18;24.10;99.30
7046;DHT22;3564;53.326;10.356;2023-06-22T06:42:45;24.10;99.10
7046;DHT22;3564;53.326;10.356;2023-06-22T06:45:12;24.20;98.90
7046;DHT22;3564;53.326;10.356;2023-06-22T06:47:39;24.20;99.00
7046;DHT22;3564;53.326;10.356;2023-06-22T06:50:05;24.30;99.20
7046;DHT22;3564;53.326;10.356;2023-06-22T06:52:37;24.30;99.10
7046;DHT22;3564;53.326;10.356;2023-06-22T06:55:09;24.40;99.20
7046;DHT22;3564;53.326;10.356;2023-06-22T06:57:43;24.40;99.10
7046;DHT22;3564;53.326;10.356;2023-06-22T07:00:11;24.50;99.10
7046;DHT22;3564;53.326;10.356;2023-06-22T07:02:39;24.50;99.10
7046;DHT22;3564;53.326;10.356;2023-06-22T07:05:05;24.60;99.00
7046;DHT22;3564;53.326;10.356;2023-06-22T07:07:32;24.60;99.10
7046;DHT22;3564;53.326;10.356;2023-06-22T07:10:01;24.70;99.20
7046;DHT22;3564;53.326;10.356;2023-06-22T07:12:26;24.80;99.20
7046;DHT22;3564;53.326;10.356;2023-06-22T07:14:53;24.90;99.20
7046;DHT22;3564;53.326;10.356;2023-06-22T07:17:18;25.00;99.20
7046;DHT22;3564;53.326;10.356;2023-06-22T07:19:47;25.00;99.00
7046;DHT22;3564;53.326;10.356;2023-06-22T07:22:12;25.20;99.00
7046;DHT22;3564;53.326;10.356;2023-06-22T07:24:38;25.20;98.90
7046;DHT22;3564;53.326;10.356;2023-06-22T07:27:04;25.30;98.80
7046;DHT22;3564;53.326;10.356;2023-06-22T07:29:32;25.40;98.70
7046;DHT22;3564;53.326;10.356;2023-06-22T07:31:57;25.50;98.60
7046;DHT22;3564;53.326;10.356;2023-06-22T07:34:23;25.70;98.60
7046;DHT22;3564;53.326;10.356;2023-06-22T07:36:48;25.80;98.30
7046;DHT22;3564;53.326;10.356;2023-06-22T07:39:14;25.90;97.90
7046;DHT22;3564;53.326;10.356;2023-06-22T07:41:40;26.00;97.60
7046;DHT22;3564;53.326;10.356;2023-06-22T07:44:12;26.10;97.60
7046;DHT22;3564;53.326;10.356;2023-06-22T07:46:37;26.20;97.20
7046;DHT22;3564;53.326;10.356;2023-06-22T07:49:03;26.30;96.90
7046;DHT22;3564;53.326;10.356;2023-06-22T07:51:34;26.30;96.80
7046;DHT22;3564;53.326;10.356;2023-06-22T07:54:09;26.30;96.60
7046;DHT22;3564;53.326;10.356;2023-06-22T07:56:36;26.40;96.50
7046;DHT22;3564;53.326;10.356;2023-06-22T07:59:02;26.40;96.30
7046;DHT22;3564;53.326;10.356;2023-06-22T08:01:29;26.50;96.00
7046;DHT22;3564;53.326;10.356;2023-06-22T08:03:54;26.50;95.80
7046;DHT22;3564;53.326;10.356;2023-06-22T08:06:20;26.60;95.50
7046;DHT22;3564;53.326;10.356;2023-06-22T08:08:46;26.60;95.20
7046;DHT22;3564;53.326;10.356;2023-06-22T08:11:13;26.70;95.00
7046;DHT22;3564;53.326;10.356;2023-06-22T08:13:42;26.80;94.90
7046;DHT22;3564;53.326;10.356;2023-06-22T08:16:07;26.80;94.60
7046;DHT22;3564;53.326;10.356;2023-06-22T08:18:33;26.90;94.20
7046;DHT22;3564;53.326;10.356;2023-06-22T08:20:59;26.90;93.80
7046;DHT22;3564;53.326;10.356;2023-06-22T08:23:24;27.00;93.60
7046;DHT22;3564;53.326;10.356;2023-06-22T08:25:56;27.00;93.40
7046;DHT22;3564;53.326;10.356;2023-06-22T08:28:22;27.10;93.00
7046;DHT22;3564;53.326;10.356;2023-06-22T08:30:47;27.20;92.90
7046;DHT22;3564;53.326;10.356;2023-06-22T08:33:13;27.20;93.10
7046;DHT22;3564;53.326;10.356;2023-06-22T08:35:38;27.40;93.20
7046;DHT22;3564;53.326;10.356;2023-06-22T08:38:04;27.40;93.00
7046;DHT22;3564;53.326;10.356;2023-06-22T08:40:32;27.50;92.80
7046;DHT22;3564;53.326;10.356;2023-06-22T08:42:58;27.50;92.70
7046;DHT22;3564;53.326;10.356;2023-06-22T08:45:23;27.70;92.40
7046;DHT22;3564;53.326;10.356;2023-06-22T08:47:52;27.70;92.30
7046;DHT22;3564;53.326;10.356;2023-06-22T08:50:18;27.70;92.30
7046;DHT22;3564;53.326;10.356;2023-06-22T08:52:47;27.80;92.30
7046;DHT22;3564;53.326;10.356;2023-06-22T08:55:12;27.90;92.10
7046;DHT22;3564;53.326;10.356;2023-06-22T08:57:39;27.90;91.80
7046;DHT22;3564;53.326;10.356;2023-06-22T09:00:07;27.90;91.70
7046;DHT22;3564;53.326;10.356;2023-06-22T09:02:41;28.00;91.80
7046;DHT22;3564;53.326;10.356;2023-06-22T09:05:07;28.00;91.80
7046;DHT22;3564;53.326;10.356;2023-06-22T09:07:33;28.10;91.70
7046;DHT22;3564;53.326;10.356;2023-06-22T09:10:00;28.20;91.60
7046;DHT22;3564;53.326;10.356;2023-06-22T09:12:25;28.20;91.40
7046;DHT22;3564;53.326;10.356;2023-06-22T09:14:52;28.20;91.40
7046;DHT22;3564;53.326;10.356;2023-06-22T09:17:18;28.30;91.30
7046;DHT22;3564;53.326;10.356;2023-06-22T09:19:44;28.30;91.20
7046;DHT22;3564;53.326;10.356;2023-06-22T09:22:09;28.40;91.20
7046;DHT22;3564;53.326;10.356;2023-06-22T09:24:35;28.40;91.20
7046;DHT22;3564;53.326;10.356;2023-06-22T09:27:01;28.50;91.00
7046;DHT22;3564;53.326;10.356;2023-06-22T09:29:26;28.60;91.10
7046;DHT22;3564;53.326;10.356;2023-06-22T09:31:52;28.70;91.00
7046;DHT22;3564;53.326;10.356;2023-06-22T09:34:21;28.70;90.20
7046;DHT22;3564;53.326;10.356;2023-06-22T09:36:47;28.80;90.40
7046;DHT22;3564;53.326;10.356;2023-06-22T09:39:12;28.80;90.60
7046;DHT22;3564;53.326;10.356;2023-06-22T09:41:41;28.90;90.80
7046;DHT22;3564;53.326;10.356;2023-06-22T09:44:06;29.00;90.70
7046;DHT22;3564;53.326;10.356;2023-06-22T09:46:32;29.00;90.70
7046;DHT22;3564;53.326;10.356;2023-06-22T09:48:58;29.10;91.00
7046;DHT22;3564;53.326;10.356;2023-06-22T09:51:23;29.10;90.90
7046;DHT22;3564;53.326;10.356;2023-06-22T09:53:55;29.20;90.70
7046;DHT22;3564;53.326;10.356;2023-06-22T09:56:21;29.20;90.80
7046;DHT22;3564;53.326;10.356;2023-06-22T09:58:49;29.30;90.70
7046;DHT22;3564;53.326;10.356;2023-06-22T10:01:18;29.40;90.60
7046;DHT22;3564;53.326;10.356;2023-06-22T10:03:43;29.40;90.40
7046;DHT22;3564;53.326;10.356;2023-06-22T10:06:09;29.50;90.50
7046;DHT22;3564;53.326;10.356;2023-06-22T10:08:35;29.50;90.20
7046;DHT22;3564;53.326;10.356;2023-06-22T10:11:03;29.60;90.20
7046;DHT22;3564;53.326;10.356;2023-06-22T10:13:32;29.70;90.40
7046;DHT22;3564;53.326;10.356;2023-06-22T10:16:01;29.80;90.70
7046;DHT22;3564;53.326;10.356;2023-06-22T10:18:26;29.80;90.50
7046;DHT22;3564;53.326;10.356;2023-06-22T10:20:52;29.90;90.50
7046;DHT22;3564;53.326;10.356;2023-06-22T10:23:18;29.90;90.30
7046;DHT22;3564;53.326;10.356;2023-06-22T10:25:44;30.00;90.00
7046;DHT22;3564;53.326;10.356;2023-06-22T10:28:13;30.10;89.80
7046;DHT22;3564;53.326;10.356;2023-06-22T10:30:46;30.10;89.90
7046;DHT22;3564;53.326;10.356;2023-06-22T10:33:12;30.20;89.80
7046;DHT22;3564;53.326;10.356;2023-06-22T10:35:43;30.30;89.40
7046;DHT22;3564;53.326;10.356;2023-06-22T10:38:09;30.30;89.20
7046;DHT22;3564;53.326;10.356;2023-06-22T10:40:37;30.30;88.40
7046;DHT22;3564;53.326;10.356;2023-06-22T10:43:04;30.40;88.10
7046;DHT22;3564;53.326;10.356;2023-06-22T10:45:30;30.50;88.50
7046;DHT22;3564;53.326;10.356;2023-06-22T10:47:56;30.60;88.40
7046;DHT22;3564;53.326;10.356;2023-06-22T10:50:21;30.70;88.50
7046;DHT22;3564;53.326;10.356;2023-06-22T10:52:49;30.90;87.40
7046;DHT22;3564;53.326;10.356;2023-06-22T10:55:14;30.90;86.90
7046;DHT22;3564;53.326;10.356;2023-06-22T10:57:40;30.90;86.20
7046;DHT22;3564;53.326;10.356;2023-06-22T11:00:12;31.00;86.50
7046;DHT22;3564;53.326;10.356;2023-06-22T11:02:38;31.00;86.10
7046;DHT22;3564;53.326;10.356;2023-06-22T11:05:04;31.10;86.00
7046;DHT22;3564;53.326;10.356;2023-06-22T11:07:30;31.00;86.10
7046;DHT22;3564;53.326;10.356;2023-06-22T11:09:55;31.10;86.10
7046;DHT22;3564;53.326;10.356;2023-06-22T11:12:21;31.20;85.80
7046;DHT22;3564;53.326;10.356;2023-06-22T11:14:47;31.30;85.00
7046;DHT22;3564;53.326;10.356;2023-06-22T11:17:12;31.30;84.90
7046;DHT22;3564;53.326;10.356;2023-06-22T11:19:38;31.40;84.90
7046;DHT22;3564;53.326;10.356;2023-06-22T11:22:06;31.40;85.00
7046;DHT22;3564;53.326;10.356;2023-06-22T11:24:32;31.30;85.90
7046;DHT22;3564;53.326;10.356;2023-06-22T11:27:00;31.40;85.20
7046;DHT22;3564;53.326;10.356;2023-06-22T11:29:26;31.30;85.10
7046;DHT22;3564;53.326;10.356;2023-06-22T11:31:57;31.30;85.00
7046;DHT22;3564;53.326;10.356;2023-06-22T11:34:23;31.30;84.90
7046;DHT22;3564;53.326;10.356;2023-06-22T11:36:48;31.30;85.60
7046;DHT22;3564;53.326;10.356;2023-06-22T11:39:14;31.30;86.20
7046;DHT22;3564;53.326;10.356;2023-06-22T11:41:40;31.20;85.80
7046;DHT22;3564;53.326;10.356;2023-06-22T11:44:07;31.20;85.80
7046;DHT22;3564;53.326;10.356;2023-06-22T11:46:32;31.30;86.60
7046;DHT22;3564;53.326;10.356;2023-06-22T11:48:58;31.20;86.40
7046;DHT22;3564;53.326;10.356;2023-06-22T11:51:24;31.30;86.10
7046;DHT22;3564;53.326;10.356;2023-06-22T11:53:49;31.40;85.90
7046;DHT22;3564;53.326;10.356;2023-06-22T11:56:15;31.40;85.80
7046;DHT22;3564;53.326;10.356;2023-06-22T11:58:40;31.50;85.30
7046;DHT22;3564;53.326;10.356;2023-06-22T12:01:06;31.60;84.90
7046;DHT22;3564;53.326;10.356;2023-06-22T12:03:32;31.60;85.50
7046;DHT22;3564;53.326;10.356;2023-06-22T12:05:59;31.70;85.10
7046;DHT22;3564;53.326;10.356;2023-06-22T12:08:27;31.80;85.10
7046;DHT22;3564;53.326;10.356;2023-06-22T12:10:53;31.80;84.80
7046;DHT22;3564;53.326;10.356;2023-06-22T12:13:19;31.80;83.50
7046;DHT22;3564;53.326;10.356;2023-06-22T12:15:48;31.90;83.20
7046;DHT22;3564;53.326;10.356;2023-06-22T12:18:13;31.80;83.20
7046;DHT22;3564;53.326;10.356;2023-06-22T12:20:43;31.80;83.30
7046;DHT22;3564;53.326;10.356;2023-06-22T12:23:08;31.90;83.10
7046;DHT22;3564;53.326;10.356;2023-06-22T12:25:34;31.80;84.10
7046;DHT22;3564;53.326;10.356;2023-06-22T12:28:00;31.80;83.80
7046;DHT22;3564;53.326;10.356;2023-06-22T12:30:25;31.80;83.80
7046;DHT22;3564;53.326;10.356;2023-06-22T12:32:51;31.80;84.10
7046;DHT22;3564;53.326;10.356;2023-06-22T12:35:16;31.80;84.10
7046;DHT22;3564;53.326;10.356;2023-06-22T12:37:42;31.80;83.80
7046;DHT22;3564;53.326;10.356;2023-06-22T12:40:11;31.70;83.80
7046;DHT22;3564;53.326;10.356;2023-06-22T12:42:37;31.70;83.20
7046;DHT22;3564;53.326;10.356;2023-06-22T12:45:02;31.70;83.20
7046;DHT22;3564;53.326;10.356;2023-06-22T12:47:28;31.70;83.70
7046;DHT22;3564;53.326;10.356;2023-06-22T12:49:54;31.70;82.40
7046;DHT22;3564;53.326;10.356;2023-06-22T12:52:19;31.60;82.60
7046;DHT22;3564;53.326;10.356;2023-06-22T12:54:45;31.60;83.20
7046;DHT22;3564;53.326;10.356;2023-06-22T12:57:13;31.60;83.70
7046;DHT22;3564;53.326;10.356;2023-06-22T12:59:39;31.70;84.10
7046;DHT22;3564;53.326;10.356;2023-06-22T13:02:05;31.70;83.70
7046;DHT22;3564;53.326;10.356;2023-06-22T13:04:34;31.70;83.80
7046;DHT22;3564;53.326;10.356;2023-06-22T13:07:06;31.70;83.70
7046;DHT22;3564;53.326;10.356;2023-06-22T13:09:31;31.70;83.40
7046;DHT22;3564;53.326;10.356;2023-06-22T13:11:57;31.70;83.20
7046;DHT22;3564;53.326;10.356;2023-06-22T13:14:23;31.70;83.10
7046;DHT22;3564;53.326;10.356;2023-06-22T13:16:49;31.70;82.50
7046;DHT22;3564;53.326;10.356;2023-06-22T13:19:15;31.70;82.30
7046;DHT22;3564;53.326;10.356;2023-06-22T13:21:40;31.60;83.40
7046;DHT22;3564;53.326;10.356;2023-06-22T13:24:06;31.60;82.90
7046;DHT22;3564;53.326;10.356;2023-06-22T13:26:32;31.60;82.70
7046;DHT22;3564;53.326;10.356;2023-06-22T13:28:57;31.60;83.00
7046;DHT22;3564;53.326;10.356;2023-06-22T13:31:23;31.50;83.10
7046;DHT22;3564;53.326;10.356;2023-06-22T13:33:48;31.50;83.20
7046;DHT22;3564;53.326;10.356;2023-06-22T13:36:20;31.40;84.10
7046;DHT22;3564;53.326;10.356;2023-06-22T13:38:46;31.40;84.20
7046;DHT22;3564;53.326;10.356;2023-06-22T13:41:12;31.30;83.90
7046;DHT22;3564;53.326;10.356;2023-06-22T13:43:38;31.20;83.00
7046;DHT22;3564;53.326;10.356;2023-06-22T13:46:03;31.10;82.90
7046;DHT22;3564;53.326;10.356;2023-06-22T13:48:32;31.10;83.80
7046;DHT22;3564;53.326;10.356;2023-06-22T13:51:06;31.00;84.70
7046;DHT22;3564;53.326;10.356;2023-06-22T13:53:32;30.90;85.20
7046;DHT22;3564;53.326;10.356;2023-06-22T13:55:57;30.80;86.10
7046;DHT22;3564;53.326;10.356;2023-06-22T13:58:23;30.80;87.00
7046;DHT22;3564;53.326;10.356;2023-06-22T14:00:52;30.70;87.80
7046;DHT22;3564;53.326;10.356;2023-06-22T14:03:17;30.60;89.40
7046;DHT22;3564;53.326;10.356;2023-06-22T14:05:43;30.60;90.00
7046;DHT22;3564;53.326;10.356;2023-06-22T14:08:09;30.50;88.70
7046;DHT22;3564;53.326;10.356;2023-06-22T14:10:34;30.40;88.10
7046;DHT22;3564;53.326;10.356;2023-06-22T14:13:00;30.30;87.60
7046;DHT22;3564;53.326;10.356;2023-06-22T14:15:29;30.30;87.60
7046;DHT22;3564;53.326;10.356;2023-06-22T14:17:54;30.20;88.00
7046;DHT22;3564;53.326;10.356;2023-06-22T14:20:20;30.10;87.80
7046;DHT22;3564;53.326;10.356;2023-06-22T14:22:45;30.10;87.70
7046;DHT22;3564;53.326;10.356;2023-06-22T14:25:17;30.00;88.50
7046;DHT22;3564;53.326;10.356;2023-06-22T14:27:42;30.00;88.00
7046;DHT22;3564;53.326;10.356;2023-06-22T14:30:09;30.00;87.50
7046;DHT22;3564;53.326;10.356;2023-06-22T14:32:35;30.00;87.30
7046;DHT22;3564;53.326;10.356;2023-06-22T14:35:04;30.00;87.00
7046;DHT22;3564;53.326;10.356;2023-06-22T14:37:29;30.10;87.50
7046;DHT22;3564;53.326;10.356;2023-06-22T14:39:55;30.20;87.40
7046;DHT22;3564;53.326;10.356;2023-06-22T14:42:23;30.30;87.50
7046;DHT22;3564;53.326;10.356;2023-06-22T14:44:49;30.30;87.40
7046;DHT22;3564;53.326;10.356;2023-06-22T14:47:14;30.40;87.00
7046;DHT22;3564;53.326;10.356;2023-06-22T14:49:40;30.40;87.40
7046;DHT22;3564;53.326;10.356;2023-06-22T14:52:06;30.50;87.70
7046;DHT22;3564;53.326;10.356;2023-06-22T14:54:32;30.40;87.90
7046;DHT22;3564;53.326;10.356;2023-06-22T14:56:57;30.40;87.60
7046;DHT22;3564;53.326;10.356;2023-06-22T14:59:26;30.40;87.90
7046;DHT22;3564;53.326;10.356;2023-06-22T15:01:51;30.30;88.50
7046;DHT22;3564;53.326;10.356;2023-06-22T15:04:17;30.30;87.40
7046;DHT22;3564;53.326;10.356;2023-06-22T15:06:42;30.20;87.50
7046;DHT22;3564;53.326;10.356;2023-06-22T15:09:09;30.20;87.60
7046;DHT22;3564;53.326;10.356;2023-06-22T15:11:35;30.20;87.60
7046;DHT22;3564;53.326;10.356;2023-06-22T15:14:00;30.10;88.00
7046;DHT22;3564;53.326;10.356;2023-06-22T15:16:26;30.10;88.10
7046;DHT22;3564;53.326;10.356;2023-06-22T15:18:51;30.00;88.00
7046;DHT22;3564;53.326;10.356;2023-06-22T15:21:17;30.00;88.00
7046;DHT22;3564;53.326;10.356;2023-06-22T15:23:43;30.00;88.20
7046;DHT22;3564;53.326;10.356;2023-06-22T15:26:08;29.90;88.30
7046;DHT22;3564;53.326;10.356;2023-06-22T15:28:34;29.90;88.10
7046;DHT22;3564;53.326;10.356;2023-06-22T15:31:05;29.90;88.10
7046;DHT22;3564;53.326;10.356;2023-06-22T15:33:31;29.80;88.60
7046;DHT22;3564;53.326;10.356;2023-06-22T15:35:58;29.80;88.20
7046;DHT22;3564;53.326;10.356;2023-06-22T15:38:23;29.80;88.60
7046;DHT22;3564;53.326;10.356;2023-06-22T15:40:49;29.70;88.80
7046;DHT22;3564;53.326;10.356;2023-06-22T15:43:17;29.70;88.80
7046;DHT22;3564;53.326;10.356;2023-06-22T15:45:45;29.60;88.60
7046;DHT22;3564;53.326;10.356;2023-06-22T15:48:11;29.60;88.50
7046;DHT22;3564;53.326;10.356;2023-06-22T15:50:36;29.60;88.40